Time;durP1;ratioP1;P1;durP2;ratioP2;P2;SDS_P1;SDS_P2;PMS_P1;PMS_P2;Temp;Humidity;BMP_temperature;BMP_pressure;BME280_temperature;BME280_humidity;BME280_pressure;Samples;Min_cycle;Max_cycle;Signal;HPM_P1;HPM_P2
2023/04/17 00:00:18;;;;;;;1.50;1.00;;;11.20;98.20;;;;;;5000883;28;20468;-78
2023/04/17 00:02:45;;;;;;;1.50;1.10;;;11.20;98.20;;;;;;5013551;28;20486;-78
2023/04/17 00:05:12;;;;;;;1.50;1.10;;;11.20;98.20;;;;;;5012844;28;20460;-77
2023/04/17 00:07:40;;;;;;;3.73;2.63;;;11.20;98.20;;;;;;4998912;28;21010;-75
2023/04/17 00:10:08;;;;;;;1.50;1.10;;;11.20;98.20;;;;;;5000043;28;20495;-75
2023/04/17 00:12:37;;;;;;;1.60;1.20;;;11.20;98.20;;;;;;5025389;28;20482;-78
2023/04/17 00:15:04;;;;;;;1.50;1.13;;;11.20;98.20;;;;;;5024590;28;20842;-77
2023/04/17 00:17:32;;;;;;;1.50;1.10;;;11.20;98.20;;;;;;5028431;28;20481;-74
2023/04/17 00:19:58;;;;;;;1.50;1.10;;;11.20;98.20;;;;;;5039232;23;20499;-75
2023/04/17 00:22:25;;;;;;;1.50;1.10;;;11.20;98.20;;;;;;5002870;28;20480;-75
2023/04/17 00:24:52;;;;;;;1.50;1.00;;;11.20;98.20;;;;;;5023103;28;20459;-75
2023/04/17 00:27:19;;;;;;;1.50;1.10;;;11.20;98.20;;;;;;5004922;28;20492;-75
2023/04/17 00:29:47;;;;;;;1.50;1.10;;;11.10;98.20;;;;;;5019669;28;20545;-75
2023/04/17 00:32:13;;;;;;;1.50;1.20;;;11.10;98.20;;;;;;5005554;28;20799;-75
2023/04/17 00:34:40;;;;;;;1.50;1.10;;;11.10;98.20;;;;;;5021098;28;20467;-75
2023/04/17 00:37:07;;;;;;;1.50;1.10;;;11.10;98.20;;;;;;5006741;28;20511;-76
2023/04/17 00:39:34;;;;;;;1.50;1.10;;;11.10;98.20;;;;;;5020488;28;20475;-75
2023/04/17 00:42:01;;;;;;;1.50;1.20;;;11.10;98.20;;;;;;5006662;28;20508;-75
2023/04/17 00:44:28;;;;;;;1.50;1.10;;;11.10;98.20;;;;;;5018178;28;20495;-75
2023/04/17 00:46:56;;;;;;;1.50;1.10;;;11.10;98.20;;;;;;5016496;28;20543;-75
2023/04/17 00:49:24;;;;;;;1.50;1.10;;;11.10;98.20;;;;;;5025361;28;20491;-75
2023/04/17 00:51:52;;;;;;;1.50;1.00;;;11.10;98.20;;;;;;5012656;28;20656;-75
2023/04/17 00:54:19;;;;;;;1.50;1.20;;;11.10;98.20;;;;;;5025629;28;20463;-75
2023/04/17 00:56:46;;;;;;;1.50;1.20;;;11.10;98.20;;;;;;5006873;28;20555;-75
2023/04/17 00:59:17;;;;;;;1.50;1.10;;;11.10;98.20;;;;;;5016432;28;20464;-75
2023/04/17 01:01:43;;;;;;;1.50;1.20;;;11.10;98.20;;;;;;5009235;28;20488;-76
2023/04/17 01:04:12;;;;;;;1.50;1.20;;;11.10;98.20;;;;;;5016089;28;20460;-75
2023/04/17 01:06:39;;;;;;;1.50;1.00;;;11.10;98.20;;;;;;5009231;28;20484;-75
2023/04/17 01:09:06;;;;;;;1.50;1.10;;;11.10;98.20;;;;;;5015103;28;20517;-75
2023/04/17 01:11:33;;;;;;;1.50;1.10;;;11.10;98.20;;;;;;5007796;28;20866;-75
2023/04/17 01:13:59;;;;;;;1.50;1.20;;;11.10;98.20;;;;;;5012821;28;20669;-75
2023/04/17 01:16:29;;;;;;;1.50;1.00;;;11.10;98.20;;;;;;5011732;28;20495;-75
2023/04/17 01:18:55;;;;;;;1.50;1.00;;;11.10;98.20;;;;;;5014742;28;20811;-75
2023/04/17 01:21:23;;;;;;;1.50;1.17;;;11.10;98.20;;;;;;5001629;28;20727;-76
2023/04/17 01:23:51;;;;;;;1.50;1.10;;;11.10;98.20;;;;;;5012200;28;20774;-75
2023/04/17 01:26:22;;;;;;;1.50;1.00;;;11.10;98.20;;;;;;5012184;28;20469;-75
2023/04/17 01:28:52;;;;;;;1.50;1.10;;;11.10;98.20;;;;;;5008205;28;20777;-75
2023/04/17 01:31:20;;;;;;;1.50;1.10;;;11.10;98.20;;;;;;5007999;28;20493;-75
2023/04/17 01:33:46;;;;;;;1.50;1.00;;;11.10;98.20;;;;;;5012977;28;20522;-75
2023/04/17 01:36:13;;;;;;;1.50;1.10;;;11.10;98.20;;;;;;5006733;28;20473;-75
2023/04/17 01:38:40;;;;;;;1.50;1.10;;;11.10;98.20;;;;;;5021350;28;20467;-76
2023/04/17 01:41:09;;;;;;;1.50;1.10;;;11.10;98.20;;;;;;5012034;28;20473;-75
2023/04/17 01:43:39;;;;;;;1.50;1.10;;;11.10;98.20;;;;;;5020018;28;20464;-75
2023/04/17 01:46:05;;;;;;;3.80;3.20;;;11.10;98.20;;;;;;5006677;28;20540;-75
2023/04/17 01:48:32;;;;;;;1.50;1.20;;;11.10;98.20;;;;;;5007087;28;20468;-76
2023/04/17 01:50:59;;;;;;;1.50;1.10;;;11.10;98.20;;;;;;5011018;28;20506;-75
2023/04/17 01:53:26;;;;;;;1.50;1.10;;;11.10;98.20;;;;;;5005564;28;20471;-76
2023/04/17 01:55:53;;;;;;;1.50;1.10;;;11.10;98.20;;;;;;5011362;28;20463;-75
2023/04/17 01:58:20;;;;;;;1.50;1.00;;;11.10;98.20;;;;;;5004556;28;20467;-75
2023/04/17 02:00:48;;;;;;;1.50;1.00;;;11.10;98.20;;;;;;5018214;28;20472;-75
2023/04/17 02:03:15;;;;;;;1.50;1.10;;;11.10;98.20;;;;;;5005874;28;20472;-75
2023/04/17 02:05:44;;;;;;;1.50;1.10;;;11.10;98.20;;;;;;5024369;28;20509;-76
2023/04/17 02:08:11;;;;;;;1.50;1.10;;;11.10;98.20;;;;;;4996586;28;20846;-75
2023/04/17 02:10:38;;;;;;;1.50;1.20;;;11.10;98.20;;;;;;5022936;28;20500;-75
2023/04/17 02:13:05;;;;;;;1.50;1.10;;;11.10;98.20;;;;;;4997789;28;20510;-75
2023/04/17 02:15:31;;;;;;;1.50;1.10;;;11.10;98.20;;;;;;5023218;28;20475;-75
2023/04/17 02:18:00;;;;;;;1.50;1.07;;;11.10;98.20;;;;;;4997402;28;20487;-75
2023/04/17 02:20:27;;;;;;;1.50;1.00;;;11.10;98.20;;;;;;5023421;28;21027;-75
2023/04/17 02:22:55;;;;;;;1.50;1.10;;;11.10;98.20;;;;;;5000899;28;20507;-75
2023/04/17 02:25:21;;;;;;;1.50;1.10;;;11.10;98.20;;;;;;5025672;28;20459;-75
2023/04/17 02:27:48;;;;;;;1.50;1.10;;;11.10;98.20;;;;;;5002456;28;20480;-75
2023/04/17 02:30:15;;;;;;;1.50;1.10;;;11.10;98.20;;;;;;5024101;28;20882;-76
2023/04/17 02:32:43;;;;;;;1.50;1.27;;;11.00;98.20;;;;;;5002252;28;20479;-76
2023/04/17 02:35:11;;;;;;;1.50;1.10;;;11.00;98.20;;;;;;5024019;28;20463;-76
2023/04/17 02:37:38;;;;;;;1.50;1.10;;;11.00;98.20;;;;;;5002784;28;20791;-77
2023/04/17 02:40:06;;;;;;;1.60;1.50;;;11.00;98.20;;;;;;5023204;28;20569;-77
2023/04/17 02:42:33;;;;;;;1.50;1.10;;;11.00;98.20;;;;;;5007269;28;20538;-76
2023/04/17 02:45:00;;;;;;;1.50;1.10;;;11.00;98.20;;;;;;5029848;28;20851;-76
2023/04/17 02:47:27;;;;;;;1.50;1.10;;;11.00;98.20;;;;;;5004900;28;20498;-77
2023/04/17 02:49:55;;;;;;;1.50;1.10;;;11.00;98.20;;;;;;5021929;28;20486;-77
2023/04/17 02:52:23;;;;;;;1.50;1.00;;;11.00;98.20;;;;;;5004959;28;20487;-76
2023/04/17 02:54:50;;;;;;;1.50;1.10;;;11.00;98.20;;;;;;5021258;28;20536;-77
2023/04/17 02:57:16;;;;;;;1.50;1.10;;;11.00;98.20;;;;;;5017604;28;20882;-77
2023/04/17 02:59:43;;;;;;;1.60;1.50;;;11.00;98.20;;;;;;5021425;28;20494;-80
2023/04/17 03:02:10;;;;;;;1.50;1.10;;;10.90;98.20;;;;;;5009035;28;20496;-77
2023/04/17 03:04:38;;;;;;;1.53;1.10;;;10.90;98.20;;;;;;5019874;28;20471;-76
2023/04/17 03:07:05;;;;;;;1.50;1.00;;;10.90;98.20;;;;;;5008712;28;20480;-76
2023/04/17 03:09:33;;;;;;;1.50;1.10;;;10.90;98.20;;;;;;5019456;28;20483;-78
2023/04/17 03:12:00;;;;;;;1.50;1.10;;;10.90;98.20;;;;;;5014054;28;20925;-77
2023/04/17 03:14:27;;;;;;;1.50;1.07;;;10.90;98.20;;;;;;5026915;28;20486;-77
2023/04/17 03:16:54;;;;;;;1.53;1.10;;;10.90;98.20;;;;;;5010257;28;20496;-78
2023/04/17 03:19:20;;;;;;;1.50;1.20;;;10.90;98.20;;;;;;5021564;28;20466;-76
2023/04/17 03:21:47;;;;;;;1.93;1.73;;;10.90;98.20;;;;;;5009085;28;20563;-75
2023/04/17 03:24:14;;;;;;;1.50;1.10;;;10.90;98.20;;;;;;5017705;28;20554;-77
2023/04/17 03:26:42;;;;;;;1.50;1.10;;;10.90;98.20;;;;;;5012935;28;20523;-78
2023/04/17 03:29:09;;;;;;;1.50;1.10;;;10.90;98.20;;;;;;5020873;28;20981;-77
2023/04/17 03:31:36;;;;;;;1.50;1.07;;;10.90;98.20;;;;;;5012070;28;20492;-76
2023/04/17 03:34:02;;;;;;;1.83;1.63;;;10.90;98.20;;;;;;5018015;28;20464;-76
2023/04/17 03:36:29;;;;;;;1.50;1.30;;;10.80;98.20;;;;;;5012384;28;20688;-77
2023/04/17 03:38:56;;;;;;;1.50;1.30;;;10.80;98.20;;;;;;5010654;28;20459;-77
2023/04/17 03:41:23;;;;;;;1.50;1.30;;;10.80;98.20;;;;;;5012859;28;20503;-77
2023/04/17 03:43:51;;;;;;;1.50;1.20;;;10.80;98.20;;;;;;5026563;28;20456;-77
2023/04/17 03:46:18;;;;;;;1.50;1.10;;;10.80;98.20;;;;;;5014534;28;20483;-76
2023/04/17 03:48:45;;;;;;;1.50;1.10;;;10.80;98.20;;;;;;5013020;28;20464;-75
2023/04/17 03:51:11;;;;;;;1.50;1.10;;;10.80;98.20;;;;;;5014642;28;21044;-74
2023/04/17 03:53:39;;;;;;;1.50;1.10;;;10.80;98.20;;;;;;5010588;28;20474;-75
2023/04/17 03:56:06;;;;;;;1.50;1.10;;;10.80;98.20;;;;;;5016355;28;20462;-75
2023/04/17 03:58:32;;;;;;;2.17;1.60;;;10.80;98.20;;;;;;5011452;28;20951;-76
2023/04/17 04:01:00;;;;;;;1.50;1.20;;;10.80;98.20;;;;;;5017425;28;20676;-76
2023/04/17 04:03:27;;;;;;;1.50;1.10;;;10.80;98.20;;;;;;5012733;28;20451;-77
2023/04/17 04:05:54;;;;;;;1.50;1.10;;;10.80;98.20;;;;;;5017067;28;20459;-77
2023/04/17 04:08:21;;;;;;;4.70;3.20;;;10.80;98.20;;;;;;5008371;28;20998;-75
2023/04/17 04:10:48;;;;;;;1.60;1.50;;;10.80;98.20;;;;;;5018830;28;20486;-74
2023/04/17 04:13:14;;;;;;;1.50;1.10;;;10.80;98.20;;;;;;5021984;28;20503;-75
2023/04/17 04:15:41;;;;;;;1.50;1.10;;;10.80;98.20;;;;;;5025102;28;20475;-77
2023/04/17 04:18:09;;;;;;;1.50;1.10;;;10.80;98.20;;;;;;4997979;28;20872;-76
2023/04/17 04:20:36;;;;;;;1.50;1.10;;;10.80;98.20;;;;;;5026943;28;20518;-76
2023/04/17 04:23:03;;;;;;;1.50;1.10;;;10.80;98.20;;;;;;4996875;28;20488;-76
2023/04/17 04:25:31;;;;;;;1.50;1.13;;;10.80;98.20;;;;;;5026592;28;20472;-76
2023/04/17 04:28:00;;;;;;;1.50;1.30;;;10.80;98.20;;;;;;4999543;28;20479;-77
2023/04/17 04:30:29;;;;;;;1.50;1.10;;;10.80;98.20;;;;;;5025391;28;20562;-76
2023/04/17 04:32:59;;;;;;;1.50;1.10;;;10.70;98.20;;;;;;4998761;28;20592;-77
2023/04/17 04:35:29;;;;;;;1.50;1.10;;;10.70;98.20;;;;;;5014077;28;20899;-75
2023/04/17 04:38:00;;;;;;;1.50;1.20;;;10.70;98.20;;;;;;5004518;28;20483;-75
2023/04/17 04:40:27;;;;;;;1.50;1.20;;;10.70;98.20;;;;;;5019708;28;20479;-76
2023/04/17 04:42:54;;;;;;;1.50;1.10;;;10.70;98.20;;;;;;4997598;28;20480;-76
2023/04/17 04:45:21;;;;;;;1.50;1.10;;;10.70;98.20;;;;;;5025112;28;20463;-76
2023/04/17 04:47:48;;;;;;;1.50;1.10;;;10.70;98.20;;;;;;5002700;28;20476;-76
2023/04/17 04:50:16;;;;;;;1.50;1.20;;;10.70;98.20;;;;;;5024382;28;20899;-76
2023/04/17 04:52:44;;;;;;;1.50;1.10;;;10.60;98.20;;;;;;5003198;28;20633;-76
2023/04/17 04:55:11;;;;;;;1.50;1.10;;;10.60;98.20;;;;;;5023391;28;20465;-76
2023/04/17 04:57:38;;;;;;;1.50;1.10;;;10.60;98.20;;;;;;4999213;28;20493;-75
2023/04/17 05:00:07;;;;;;;1.50;1.10;;;10.60;98.20;;;;;;5023003;28;20697;-76
2023/04/17 05:02:34;;;;;;;1.50;1.10;;;10.50;98.20;;;;;;5001674;28;20582;-76
2023/04/17 05:05:01;;;;;;;1.50;1.10;;;10.50;98.20;;;;;;5020678;28;21108;-76
2023/04/17 05:07:28;;;;;;;1.50;1.03;;;10.50;98.20;;;;;;5003419;28;20491;-75
2023/04/17 05:09:56;;;;;;;1.50;1.10;;;10.50;98.20;;;;;;5022010;28;20584;-76
2023/04/17 05:12:23;;;;;;;1.53;1.17;;;10.50;98.20;;;;;;5009572;28;20509;-76
2023/04/17 05:14:49;;;;;;;1.50;1.10;;;10.50;98.20;;;;;;5021252;28;21010;-75
2023/04/17 05:17:16;;;;;;;1.57;1.10;;;10.50;98.20;;;;;;4996066;28;21032;-76
2023/04/17 05:19:43;;;;;;;1.60;1.30;;;10.50;98.20;;;;;;5021296;28;20495;-76
2023/04/17 05:22:15;;;;;;;1.50;1.10;;;10.50;98.20;;;;;;5000141;28;20563;-75
2023/04/17 05:24:42;;;;;;;1.50;1.20;;;10.50;98.20;;;;;;5021207;28;20455;-76
2023/04/17 05:27:10;;;;;;;1.50;1.07;;;10.50;98.20;;;;;;4999746;28;20483;-76
2023/04/17 05:29:37;;;;;;;1.50;1.20;;;10.50;98.20;;;;;;5020858;28;20479;-76
2023/04/17 05:32:05;;;;;;;1.50;1.10;;;10.50;98.20;;;;;;5005886;28;20599;-75
2023/04/17 05:34:31;;;;;;;1.50;1.20;;;10.50;98.20;;;;;;5024475;28;20499;-78
2023/04/17 05:36:58;;;;;;;1.50;1.20;;;10.50;98.20;;;;;;5004312;28;20854;-76
2023/04/17 05:39:25;;;;;;;1.50;1.20;;;10.50;98.20;;;;;;5017643;28;20474;-76
2023/04/17 05:41:51;;;;;;;1.70;1.60;;;10.50;98.20;;;;;;5009707;28;20816;-76
2023/04/17 05:44:19;;;;;;;1.50;1.10;;;10.50;98.20;;;;;;5019711;28;20465;-76
2023/04/17 05:46:46;;;;;;;1.50;1.10;;;10.50;98.20;;;;;;5002802;28;20499;-77
2023/04/17 05:49:13;;;;;;;1.50;1.10;;;10.50;98.20;;;;;;5016017;28;20463;-76
2023/04/17 05:51:40;;;;;;;2.80;2.60;;;10.50;98.20;;;;;;5003614;28;20494;-76
2023/04/17 05:54:06;;;;;;;1.50;1.10;;;10.50;98.20;;;;;;5012624;28;20475;-74
2023/04/17 05:56:33;;;;;;;1.50;1.17;;;10.50;98.20;;;;;;5013609;28;20487;-74
2023/04/17 05:59:00;;;;;;;1.50;1.00;;;10.50;98.20;;;;;;5021773;28;20852;-76
2023/04/17 06:01:29;;;;;;;1.50;1.10;;;10.50;98.20;;;;;;5007576;28;20476;-76
2023/04/17 06:03:56;;;;;;;1.50;1.10;;;10.50;98.20;;;;;;5009676;28;20538;-76
2023/04/17 06:06:22;;;;;;;1.50;1.10;;;10.60;98.20;;;;;;5009595;28;20476;-76
2023/04/17 06:08:51;;;;;;;1.50;1.00;;;10.60;98.20;;;;;;5011903;28;20502;-76
2023/04/17 06:11:18;;;;;;;1.50;1.10;;;10.60;98.20;;;;;;5002990;28;20516;-76
2023/04/17 06:13:44;;;;;;;1.50;1.10;;;10.60;98.20;;;;;;5010768;28;20459;-76
2023/04/17 06:16:11;;;;;;;1.83;1.73;;;10.60;98.20;;;;;;5010075;28;20484;-76
2023/04/17 06:18:40;;;;;;;1.50;1.20;;;10.60;98.20;;;;;;5013512;28;20466;-76
2023/04/17 06:21:07;;;;;;;1.60;1.30;;;10.60;98.20;;;;;;5009450;28;20496;-77
2023/04/17 06:23:34;;;;;;;1.50;1.10;;;10.60;98.20;;;;;;5020953;28;21017;-76
2023/04/17 06:26:01;;;;;;;1.50;1.10;;;10.60;98.20;;;;;;5012593;28;20466;-76
2023/04/17 06:28:28;;;;;;;1.50;1.10;;;10.60;98.20;;;;;;5007652;28;20468;-76
2023/04/17 06:30:54;;;;;;;1.50;1.10;;;10.60;98.20;;;;;;4995451;28;20480;-77
2023/04/17 06:33:21;;;;;;;1.50;1.10;;;10.70;98.20;;;;;;5020337;28;20463;-78
2023/04/17 06:35:49;;;;;;;1.50;1.10;;;10.70;98.20;;;;;;5014199;28;21150;-78
2023/04/17 06:38:16;;;;;;;1.70;1.53;;;10.80;98.20;;;;;;5004718;28;20475;-78
2023/04/17 06:40:43;;;;;;;1.50;1.10;;;10.80;98.20;;;;;;5023948;28;20482;-79
2023/04/17 06:43:09;;;;;;;1.60;1.40;;;10.90;98.20;;;;;;4995877;28;20562;-78
2023/04/17 06:45:36;;;;;;;1.50;1.10;;;10.90;98.20;;;;;;5024210;28;20459;-78
2023/04/17 06:48:03;;;;;;;1.50;1.10;;;10.90;98.20;;;;;;5005551;28;21019;-78
2023/04/17 06:50:30;;;;;;;1.50;1.07;;;11.00;98.20;;;;;;5024852;28;20490;-78
2023/04/17 06:52:58;;;;;;;1.50;1.10;;;11.10;98.20;;;;;;5003237;28;20479;-78
2023/04/17 06:55:27;;;;;;;1.50;1.10;;;11.10;98.20;;;;;;5023961;28;20455;-78
2023/04/17 06:57:54;;;;;;;1.70;1.57;;;11.10;98.20;;;;;;4992635;28;20481;-76
2023/04/17 07:00:21;;;;;;;1.50;1.23;;;11.10;98.20;;;;;;5024036;28;20541;-77
2023/04/17 07:02:48;;;;;;;1.50;1.00;;;11.20;98.20;;;;;;4996024;28;20490;-79
2023/04/17 07:05:15;;;;;;;1.50;1.10;;;11.20;98.20;;;;;;5021434;28;20463;-79
2023/04/17 07:07:42;;;;;;;1.80;1.40;;;11.20;98.20;;;;;;5012972;28;20542;-78
2023/04/17 07:10:10;;;;;;;1.50;1.10;;;11.20;98.20;;;;;;5027151;28;20606;-78
2023/04/17 07:12:37;;;;;;;1.50;1.00;;;11.20;98.20;;;;;;4992400;28;20515;-78
2023/04/17 07:15:04;;;;;;;1.50;1.03;;;11.30;98.20;;;;;;5026018;28;20489;-78
2023/04/17 07:17:31;;;;;;;1.50;1.00;;;11.30;98.20;;;;;;5000159;28;20500;-78
2023/04/17 07:19:58;;;;;;;1.50;1.20;;;11.30;98.20;;;;;;5026615;28;20491;-78
2023/04/17 07:22:25;;;;;;;1.50;1.07;;;11.40;98.20;;;;;;5001886;28;20481;-78
2023/04/17 07:24:51;;;;;;;1.50;1.00;;;11.40;98.20;;;;;;5026469;28;20521;-78
2023/04/17 07:27:20;;;;;;;1.53;1.20;;;11.40;98.20;;;;;;4999632;28;20511;-78
2023/04/17 07:29:53;;;;;;;1.50;1.00;;;11.40;98.20;;;;;;5025594;28;20487;-78
2023/04/17 07:32:20;;;;;;;1.50;1.10;;;11.50;98.20;;;;;;5000003;28;20629;-78
2023/04/17 07:34:47;;;;;;;1.90;1.50;;;11.50;98.20;;;;;;5024031;28;20490;-78
2023/04/17 07:37:15;;;;;;;1.50;1.03;;;11.60;98.20;;;;;;5001572;28;20496;-76
2023/04/17 07:39:42;;;;;;;1.50;1.10;;;11.70;98.20;;;;;;5024195;28;20987;-77
2023/04/17 07:42:10;;;;;;;1.50;1.00;;;11.70;98.20;;;;;;5002500;28;20943;-76
2023/04/17 07:44:39;;;;;;;1.50;1.10;;;11.80;98.20;;;;;;5022027;28;20528;-78
2023/04/17 07:47:06;;;;;;;1.50;1.00;;;11.70;98.20;;;;;;5004595;28;20659;-78
2023/04/17 07:49:33;;;;;;;1.50;1.00;;;11.70;98.20;;;;;;5018009;28;20510;-77
2023/04/17 07:52:00;;;;;;;1.50;1.03;;;11.70;98.20;;;;;;5008667;28;20996;-78
2023/04/17 07:54:27;;;;;;;1.50;1.07;;;11.80;98.20;;;;;;5022844;28;20456;-78
2023/04/17 07:56:57;;;;;;;1.97;1.57;;;11.80;98.20;;;;;;5009108;28;20578;-78
2023/04/17 07:59:24;;;;;;;1.50;1.07;;;11.80;98.20;;;;;;5018707;28;20510;-78
2023/04/17 08:01:52;;;;;;;1.50;1.10;;;11.90;98.20;;;;;;5010680;28;20486;-79
2023/04/17 08:04:19;;;;;;;1.50;1.00;;;12.00;98.20;;;;;;5019722;28;20466;-75
2023/04/17 08:06:46;;;;;;;1.50;1.07;;;12.20;98.20;;;;;;5015356;28;20502;-75
2023/04/17 08:09:13;;;;;;;1.50;1.00;;;12.30;98.20;;;;;;5024578;28;20466;-75
2023/04/17 08:11:42;;;;;;;1.50;1.00;;;12.20;98.20;;;;;;5007510;28;20513;-76
2023/04/17 08:14:10;;;;;;;1.50;1.10;;;12.40;98.20;;;;;;5015641;28;20546;-75
2023/04/17 08:16:37;;;;;;;1.50;1.00;;;12.40;98.20;;;;;;5006701;28;20777;-75
2023/04/17 08:19:05;;;;;;;1.60;1.50;;;12.50;98.20;;;;;;5018465;28;20467;-75
2023/04/17 08:21:32;;;;;;;1.50;1.00;;;12.60;98.20;;;;;;5008818;28;20515;-75
2023/04/17 08:23:59;;;;;;;1.50;1.10;;;12.60;98.20;;;;;;5015606;28;20758;-78
2023/04/17 08:26:26;;;;;;;1.57;1.10;;;12.70;98.20;;;;;;5010207;28;20508;-78
2023/04/17 08:28:53;;;;;;;1.50;1.00;;;12.80;98.20;;;;;;5015011;28;20546;-78
2023/04/17 08:31:20;;;;;;;1.50;1.20;;;12.90;98.20;;;;;;5012197;28;20527;-78
2023/04/17 08:33:46;;;;;;;1.50;1.10;;;13.10;98.20;;;;;;5014654;28;20491;-75
2023/04/17 08:36:14;;;;;;;1.50;1.10;;;13.20;98.20;;;;;;5009064;28;20480;-78
2023/04/17 08:38:43;;;;;;;1.60;1.10;;;13.30;98.20;;;;;;5015964;28;20455;-75
2023/04/17 08:41:17;;;;;;;2.03;1.83;;;13.30;98.20;;;;;;5006396;28;20514;-76
2023/04/17 08:43:48;;;;;;;1.50;1.00;;;13.20;98.20;;;;;;5013488;28;20621;-76
2023/04/17 08:46:15;;;;;;;1.50;1.10;;;13.10;98.20;;;;;;5009661;28;20476;-75
2023/04/17 08:48:42;;;;;;;1.50;1.00;;;13.00;98.20;;;;;;5009768;28;20471;-76
2023/04/17 08:51:09;;;;;;;1.50;1.10;;;13.00;98.20;;;;;;5013083;28;20491;-76
2023/04/17 08:53:37;;;;;;;1.50;0.90;;;13.00;98.20;;;;;;5023132;28;20518;-78
2023/04/17 08:56:04;;;;;;;1.50;1.17;;;13.10;98.20;;;;;;5010666;28;20460;-78
2023/04/17 08:58:32;;;;;;;1.50;1.10;;;13.10;98.20;;;;;;5013999;28;20451;-77
2023/04/17 09:01:08;;;;;;;1.53;1.13;;;13.10;98.20;;;;;;5013351;28;20490;-77
2023/04/17 09:03:40;;;;;;;1.70;1.20;;;13.20;98.20;;;;;;5013105;28;20965;-77
2023/04/17 09:06:09;;;;;;;1.50;1.00;;;13.30;98.20;;;;;;5012542;28;22137;-77
2023/04/17 09:08:37;;;;;;;4.20;1.97;;;13.20;98.20;;;;;;5016672;28;20891;-77
2023/04/17 09:11:04;;;;;;;1.50;1.10;;;13.20;98.20;;;;;;5010494;28;20487;-77
2023/04/17 09:13:40;;;;;;;1.50;1.00;;;13.20;98.20;;;;;;5014365;28;20514;-77
2023/04/17 09:16:08;;;;;;;1.50;1.10;;;13.40;98.20;;;;;;5014841;28;20891;-77
2023/04/17 09:18:37;;;;;;;1.50;1.00;;;13.40;98.20;;;;;;5023842;28;20467;-77
2023/04/17 09:21:05;;;;;;;1.50;1.00;;;13.50;98.20;;;;;;5012836;28;21017;-79
2023/04/17 09:23:47;;;;;;;1.50;1.00;;;13.60;98.20;;;;;;5012632;28;21471;-77
2023/04/17 09:26:17;;;;;;;1.50;0.90;;;13.70;98.20;;;;;;5011504;28;20476;-78
2023/04/17 09:29:02;;;;;;;1.50;1.00;;;13.90;98.20;;;;;;5013624;28;20471;-80
2023/04/17 09:31:30;;;;;;;1.50;1.00;;;14.20;98.20;;;;;;5005925;28;20627;-76
2023/04/17 09:33:58;;;;;;;2.27;2.07;;;14.60;98.20;;;;;;5009790;28;20487;-77
2023/04/17 09:36:29;;;;;;;1.50;1.10;;;14.90;98.20;;;;;;5008346;28;20532;-77
2023/04/17 09:38:56;;;;;;;1.50;1.10;;;15.10;98.20;;;;;;5015437;28;20475;-77
2023/04/17 09:41:26;;;;;;;1.53;0.97;;;15.30;98.20;;;;;;5007277;28;20489;-77
2023/04/17 09:43:54;;;;;;;1.60;1.17;;;15.70;97.50;;;;;;5013519;28;20455;-77
2023/04/17 09:46:37;;;;;;;1.50;1.00;;;16.00;97.10;;;;;;5013815;28;20565;-77
2023/04/17 09:49:17;;;;;;;3.50;1.93;;;16.30;93.40;;;;;;5017979;28;20460;-77
2023/04/17 09:51:45;;;;;;;1.60;1.20;;;16.50;95.00;;;;;;5005372;28;20483;-76
2023/04/17 09:54:14;;;;;;;3.40;1.57;;;16.60;92.20;;;;;;5015341;28;20724;-75
2023/04/17 09:56:44;;;;;;;1.60;1.10;;;16.70;92.20;;;;;;5008874;28;20479;-76
2023/04/17 09:59:10;;;;;;;1.60;1.00;;;16.80;91.80;;;;;;5017091;28;20462;-76
2023/04/17 10:01:38;;;;;;;1.60;1.10;;;17.00;91.40;;;;;;5008678;28;20484;-76
2023/04/17 10:04:06;;;;;;;1.50;1.13;;;16.90;90.00;;;;;;5014451;28;20467;-75
2023/04/17 10:06:34;;;;;;;2.27;1.53;;;17.10;92.10;;;;;;5009955;28;20867;-75
2023/04/17 10:09:02;;;;;;;1.57;0.90;;;17.40;91.10;;;;;;5016956;28;20463;-75
2023/04/17 10:11:35;;;;;;;1.90;1.57;;;17.80;90.20;;;;;;5006638;28;20484;-75
2023/04/17 10:14:09;;;;;;;1.53;1.00;;;17.90;87.30;;;;;;5011587;28;20490;-75
2023/04/17 10:16:37;;;;;;;1.50;0.90;;;18.20;87.40;;;;;;5005723;28;20500;-76
2023/04/17 10:19:29;;;;;;;1.50;1.00;;;18.30;85.90;;;;;;5015937;28;20466;-75
2023/04/17 10:22:28;;;;;;;1.70;1.47;;;18.50;84.70;;;;;;5001880;28;20481;-78
2023/04/17 10:25:23;;;;;;;1.50;0.90;;;18.40;85.10;;;;;;5021792;28;20467;-76
2023/04/17 10:27:52;;;;;;;1.50;0.90;;;18.50;83.80;;;;;;4998988;28;20565;-75
2023/04/17 10:30:21;;;;;;;1.50;0.90;;;18.60;84.20;;;;;;5024752;28;20566;-76
2023/04/17 10:33:20;;;;;;;1.50;1.00;;;18.50;83.90;;;;;;4995704;28;20521;-75
2023/04/17 10:35:47;;;;;;;1.50;0.90;;;18.50;84.70;;;;;;5010441;28;20463;-75
2023/04/17 10:38:15;;;;;;;1.50;1.00;;;18.50;84.00;;;;;;5023237;28;20844;-75
2023/04/17 10:40:43;;;;;;;1.50;0.90;;;18.50;80.50;;;;;;5018017;28;20490;-77
2023/04/17 10:43:13;;;;;;;1.50;1.20;;;18.50;82.50;;;;;;5006930;28;20499;-76
2023/04/17 10:45:56;;;;;;;1.50;1.10;;;18.70;82.40;;;;;;5028057;28;20474;-76
2023/04/17 10:48:27;;;;;;;1.50;1.27;;;18.50;81.00;;;;;;5001428;28;20475;-77
2023/04/17 10:50:54;;;;;;;1.50;0.90;;;18.60;81.30;;;;;;5018088;28;20479;-76
2023/04/17 10:53:38;;;;;;;1.60;1.00;;;18.70;80.10;;;;;;5027275;28;20487;-77
2023/04/17 10:56:06;;;;;;;1.50;0.90;;;19.00;80.90;;;;;;5016966;28;20565;-77
2023/04/17 10:58:32;;;;;;;1.50;0.90;;;19.20;80.90;;;;;;5008405;28;20881;-76
2023/04/17 11:01:08;;;;;;;1.50;0.90;;;19.30;80.60;;;;;;4998565;28;20590;-76
2023/04/17 11:03:36;;;;;;;1.50;0.90;;;19.30;78.80;;;;;;4998354;28;20543;-78
2023/04/17 11:06:05;;;;;;;1.50;1.00;;;19.20;78.70;;;;;;4997822;28;20464;-77
2023/04/17 11:08:32;;;;;;;1.50;1.00;;;19.20;79.60;;;;;;5012522;28;20463;-77
2023/04/17 11:10:59;;;;;;;1.50;0.90;;;19.10;80.50;;;;;;5015346;28;20487;-77
2023/04/17 11:13:25;;;;;;;1.50;0.90;;;18.80;78.60;;;;;;5005071;28;20954;-77
2023/04/17 11:15:52;;;;;;;1.50;1.00;;;18.70;80.80;;;;;;5014825;28;20456;-77
2023/04/17 11:18:22;;;;;;;1.47;0.90;;;19.00;83.10;;;;;;5015475;28;20482;-78
2023/04/17 11:20:50;;;;;;;1.50;1.10;;;19.40;80.00;;;;;;5015608;28;20514;-77
2023/04/17 11:23:17;;;;;;;2.13;1.93;;;19.30;78.50;;;;;;5005642;28;20459;-77
2023/04/17 11:25:46;;;;;;;1.50;1.00;;;19.00;76.80;;;;;;5025381;28;20467;-78
2023/04/17 11:28:12;;;;;;;1.47;0.90;;;18.70;77.60;;;;;;5001026;28;20525;-77
2023/04/17 11:30:43;;;;;;;1.50;0.90;;;18.50;78.40;;;;;;5028049;28;20485;-77
2023/04/17 11:33:11;;;;;;;1.50;0.97;;;18.50;80.50;;;;;;5009685;28;20479;-76
2023/04/17 11:35:40;;;;;;;1.50;0.90;;;18.70;80.50;;;;;;5027921;28;20499;-77
2023/04/17 11:38:12;;;;;;;1.50;1.03;;;19.00;80.30;;;;;;5009701;28;20482;-77
2023/04/17 11:40:48;;;;;;;1.47;0.90;;;19.30;80.80;;;;;;5027400;28;20491;-77
2023/04/17 11:43:16;;;;;;;1.43;0.90;;;19.50;77.80;;;;;;5004803;28;20463;-78
2023/04/17 11:45:45;;;;;;;1.50;0.90;;;19.30;78.20;;;;;;5026648;28;20843;-77
2023/04/17 11:48:13;;;;;;;1.43;0.90;;;19.20;78.20;;;;;;4998766;28;20481;-77
2023/04/17 11:50:42;;;;;;;1.50;1.23;;;19.00;77.90;;;;;;5020014;28;20479;-78
2023/04/17 11:53:13;;;;;;;1.47;0.90;;;18.80;77.30;;;;;;5003465;28;20476;-77
2023/04/17 11:55:40;;;;;;;1.50;0.93;;;18.90;78.40;;;;;;5025822;28;20475;-78
2023/04/17 11:58:08;;;;;;;1.50;0.90;;;19.10;78.10;;;;;;5006817;28;20498;-77
2023/04/17 12:00:36;;;;;;;1.50;0.90;;;19.30;77.60;;;;;;5026251;28;20923;-77
2023/04/17 12:03:24;;;;;;;1.43;0.90;;;19.50;78.20;;;;;;5001400;28;20491;-77
2023/04/17 12:06:00;;;;;;;1.50;0.90;;;19.70;76.80;;;;;;5016180;28;20466;-78
2023/04/17 12:08:27;;;;;;;1.50;0.90;;;19.60;74.90;;;;;;5014698;28;20471;-77
2023/04/17 12:10:54;;;;;;;1.50;0.90;;;19.60;75.30;;;;;;5014761;28;20884;-77
2023/04/17 12:13:21;;;;;;;1.50;0.90;;;19.80;75.50;;;;;;4999203;28;21019;-77
2023/04/17 12:15:48;;;;;;;1.47;0.90;;;19.90;75.30;;;;;;5016542;28;21021;-78
2023/04/17 12:18:15;;;;;;;1.50;0.90;;;19.90;75.10;;;;;;5007574;28;20518;-77
2023/04/17 12:20:42;;;;;;;1.47;0.90;;;20.20;77.70;;;;;;5024231;28;20506;-77
2023/04/17 12:23:11;;;;;;;1.43;0.90;;;20.50;75.10;;;;;;5007166;28;20476;-77
2023/04/17 12:25:38;;;;;;;1.50;1.10;;;20.40;72.20;;;;;;5020122;28;21067;-77
2023/04/17 12:28:05;;;;;;;1.93;1.73;;;20.10;73.50;;;;;;4984495;28;20530;-77
2023/04/17 12:30:34;;;;;;;1.47;0.80;;;19.70;73.60;;;;;;5023833;28;20986;-77
2023/04/17 12:33:01;;;;;;;1.50;0.90;;;19.70;75.50;;;;;;4994941;28;21155;-77
2023/04/17 12:35:28;;;;;;;1.50;0.93;;;19.70;75.60;;;;;;5023088;28;20481;-78
2023/04/17 12:37:55;;;;;;;1.43;0.90;;;19.70;72.50;;;;;;4994522;28;20812;-78
2023/04/17 12:40:24;;;;;;;1.50;0.90;;;19.70;74.70;;;;;;5024288;28;20491;-77
2023/04/17 12:42:51;;;;;;;1.50;0.90;;;19.80;74.40;;;;;;4989972;28;20477;-77
2023/04/17 12:45:19;;;;;;;1.50;0.90;;;19.70;74.20;;;;;;5023537;28;20476;-78
2023/04/17 12:47:46;;;;;;;1.50;0.90;;;19.60;74.80;;;;;;4992053;28;20486;-77
2023/04/17 12:50:13;;;;;;;1.50;0.90;;;19.40;75.10;;;;;;5025818;28;20475;-77
2023/04/17 12:52:40;;;;;;;1.50;0.90;;;19.30;73.80;;;;;;4990686;28;20598;-78